Time;durP1;ratioP1;P1;durP2;ratioP2;P2;SDS_P1;SDS_P2;PMS_P1;PMS_P2;Temp;Humidity;BMP_temperature;BMP_pressure;BME280_temperature;BME280_humidity;BME280_pressure;Samples;Min_cycle;Max_cycle;Signal;HPM_P1;HPM_P2
2022/04/05 00:02:24;;;;;;;;;;;;;;;8.86;100.00;100503.72;5088245;28;19920;-38
2022/04/05 00:04:49;;;;;;;;;;;;;;;8.84;100.00;100509.25;5088072;28;19928;-36
2022/04/05 00:07:15;;;;;;;;;;;;;;;8.83;100.00;100496.03;5070882;28;19924;-35
2022/04/05 00:09:41;;;;;;;;;;;;;;;8.79;100.00;100507.13;5089649;28;19920;-33
2022/04/05 00:12:06;;;;;;;;;;;;;;;8.81;100.00;100509.59;5060841;28;20205;-33
2022/04/05 00:14:31;;;;;;;;;;;;;;;8.82;100.00;100508.59;5057215;28;19928;-38
2022/04/05 00:16:57;;;;;;;;;;;;;;;8.79;100.00;100503.56;5050471;28;19931;-37
2022/04/05 00:19:23;;;;;;;;;;;;;;;8.76;100.00;100501.25;5048519;28;19921;-36
2022/04/05 00:21:48;;;;;;;;;;;;;;;8.78;100.00;100507.28;5050214;28;19978;-33
2022/04/05 00:24:14;;;;;;;;;;;;;;;8.74;100.00;100508.63;5052814;28;20453;-35
2022/04/05 00:26:39;;;;;;;;;;;;;;;8.71;100.00;100512.50;5051883;28;20295;-38
2022/04/05 00:29:04;;;;;;;;;;;;;;;8.67;100.00;100513.06;5047691;28;19927;-39
2022/04/05 00:31:29;;;;;;;;;;;;;;;8.71;100.00;100509.81;5064023;28;19917;-41
2022/04/05 00:33:54;;;;;;;;;;;;;;;8.68;100.00;100509.34;5050314;28;19932;-40
2022/04/05 00:36:20;;;;;;;;;;;;;;;8.64;100.00;100508.06;5051846;28;19925;-35
2022/04/05 00:38:45;;;;;;;;;;;;;;;8.66;100.00;100511.38;5053723;28;19925;-33
2022/04/05 00:41:10;;;;;;;;;;;;;;;8.63;100.00;100514.41;5059800;28;19966;-32
2022/04/05 00:43:36;;;;;;;;;;;;;;;8.65;100.00;100509.72;5051604;28;20017;-35
2022/04/05 00:46:01;;;;;;;;;;;;;;;8.61;100.00;100513.75;5067371;28;19923;-35
2022/04/05 00:48:31;;;;;;;;;;;;;;;8.60;100.00;100512.94;5052702;28;19923;-32
2022/04/05 00:50:56;;;;;;;;;;;;;;;8.61;100.00;100513.75;5051601;28;19925;-34
2022/04/05 00:53:21;;;;;;;;;;;;;;;8.60;100.00;100512.09;5046689;28;20389;-34
2022/04/05 00:55:46;;;;;;;;;;;;;;;8.55;100.00;100505.41;5045129;28;20931;-37
2022/04/05 00:58:14;;;;;;;;;;;;;;;8.52;100.00;100508.44;5045867;28;19924;-36
2022/04/05 01:00:39;;;;;;;;;;;;;;;8.51;100.00;100511.31;5051077;28;19920;-33
2022/04/05 01:03:05;;;;;;;;;;;;;;;8.51;100.00;100511.31;5049825;28;20544;-35
2022/04/05 01:05:30;;;;;;;;;;;;;;;8.51;100.00;100509.47;5052496;28;19928;-38
2022/04/05 01:07:59;;;;;;;;;;;;;;;8.51;100.00;100517.50;5047664;28;20147;-38
2022/04/05 01:10:25;;;;;;;;;;;;;;;8.50;100.00;100517.69;5048724;28;19928;-35
2022/04/05 01:12:50;;;;;;;;;;;;;;;8.47;100.00;100518.03;5053727;28;19929;-34
2022/04/05 01:15:15;;;;;;;;;;;;;;;8.44;100.00;100513.84;5053504;28;20275;-35
2022/04/05 01:17:41;;;;;;;;;;;;;;;8.47;100.00;100518.03;5064718;28;20018;-34
2022/04/05 01:20:06;;;;;;;;;;;;;;;8.43;100.00;100516.72;5051020;28;19921;-32
2022/04/05 01:22:31;;;;;;;;;;;;;;;8.43;100.00;100519.41;5051905;28;19976;-37
2022/04/05 01:24:56;;;;;;;;;;;;;;;8.42;100.00;100523.91;5063682;28;20387;-37
2022/04/05 01:27:27;;;;;;;;;;;;;;;8.41;100.00;100514.22;5059597;28;20430;-36
2022/04/05 01:29:52;;;;;;;;;;;;;;;8.44;100.00;100516.53;5050098;28;20345;-36
2022/04/05 01:32:17;;;;;;;;;;;;;;;8.41;100.00;100516.91;5060107;28;19979;-38
2022/04/05 01:34:43;;;;;;;;;;;;;;;8.39;100.00;100524.28;5045712;28;20024;-42
2022/04/05 01:37:10;;;;;;;;;;;;;;;8.41;100.00;100514.22;5056034;28;19916;-43
2022/04/05 01:39:37;;;;;;;;;;;;;;;8.41;100.00;100513.38;5057141;28;19921;-43
2022/04/05 01:42:06;;;;;;;;;;;;;;;8.40;100.00;100507.19;5045785;28;20256;-43
2022/04/05 01:44:32;;;;;;;;;;;;;;;8.37;100.00;100515.53;5046005;28;19923;-43
2022/04/05 01:47:02;;;;;;;;;;;;;;;8.35;100.00;100502.31;5049838;28;20034;-44
2022/04/05 01:49:27;;;;;;;;;;;;;;;8.38;100.00;100511.03;5046635;28;19944;-43
2022/04/05 01:51:52;;;;;;;;;;;;;;;8.40;100.00;100499.16;5044345;28;20575;-38
2022/04/05 01:54:17;;;;;;;;;;;;;;;8.40;100.00;100500.97;5056773;28;19924;-41
2022/04/05 01:56:44;;;;;;;;;;;;;;;8.40;100.00;100501.84;5064457;28;19931;-36
2022/04/05 01:59:13;;;;;;;;;;;;;;;8.42;100.00;100504.31;5033249;28;19969;-33
2022/04/05 02:01:38;;;;;;;;;;;;;;;8.40;100.00;100503.66;5052428;28;19920;-36
2022/04/05 02:04:04;;;;;;;;;;;;;;;8.42;100.00;100502.47;5045292;28;20367;-38
2022/04/05 02:06:30;;;;;;;;;;;;;;;8.45;100.00;100503.97;5046075;22;19966;-78
2022/04/05 02:08:55;;;;;;;;;;;;;;;8.42;100.00;100499.78;4979141;28;19923;-79
2022/04/05 02:11:20;;;;;;;;;;;;;;;8.41;100.00;100498.13;4979119;28;19988;-79
2022/04/05 02:13:45;;;;;;;;;;;;;;;8.43;100.00;100496.09;4973820;28;19918;-80
2022/04/05 02:16:11;;;;;;;;;;;;;;;8.43;100.00;100504.16;4974326;28;19980;-79
2022/04/05 02:18:36;;;;;;;;;;;;;;;8.42;100.00;100498.97;4973944;28;19933;-79
2022/04/05 02:21:01;;;;;;;;;;;;;;;8.45;100.00;100503.97;4971922;28;20343;-81
2022/04/05 02:23:27;;;;;;;;;;;;;;;8.41;100.00;100500.81;4971833;28;20362;-81
2022/04/05 02:25:52;;;;;;;;;;;;;;;8.43;100.00;100506.84;4977598;28;20092;-81
2022/04/05 02:28:17;;;;;;;;;;;;;;;8.43;100.00;100508.69;4971560;28;19919;-80
2022/04/05 02:30:42;;;;;;;;;;;;;;;8.44;100.00;100505.81;4972082;28;19948;-81
2022/04/05 02:33:07;;;;;;;;;;;;;;;8.44;100.00;100503.13;4970936;28;19980;-80
2022/04/05 02:35:33;;;;;;;;;;;;;;;8.47;100.00;100499.25;4972277;28;20399;-77
2022/04/05 02:37:59;;;;;;;;;;;;;;;8.46;100.00;100501.13;4971071;28;20475;-79
2022/04/05 02:40:25;;;;;;;;;;;;;;;8.46;100.00;100500.28;4970880;28;19934;-80
2022/04/05 02:42:51;;;;;;;;;;;;;;;8.47;100.00;100494.72;4954967;28;20009;-80
2022/04/05 02:45:16;;;;;;;;;;;;;;;8.48;100.00;100499.09;4972250;28;20408;-79
2022/04/05 02:47:41;;;;;;;;;;;;;;;8.49;100.00;100489.19;4971109;28;19941;-79
2022/04/05 02:50:07;;;;;;;;;;;;;;;8.50;100.00;100494.38;4970706;28;19918;-78
2022/04/05 02:52:32;;;;;;;;;;;;;;;8.53;100.00;100495.88;4970632;28;19918;-79
2022/04/05 02:54:57;;;;;;;;;;;;;;;8.53;100.00;100487.81;4992949;28;19929;-79
2022/04/05 02:57:22;;;;;;;;;;;;;;;8.51;100.00;100481.81;5041125;28;20287;-79
2022/04/05 02:59:47;;;;;;;;;;;;;;;8.50;100.00;100489.00;5074843;28;20295;-79
2022/04/05 03:02:13;;;;;;;;;;;;;;;8.53;100.00;100488.69;5075106;28;19940;-79
2022/04/05 03:04:38;;;;;;;;;;;;;;;8.52;100.00;100489.66;5003634;28;20355;-79
2022/04/05 03:07:03;;;;;;;;;;;;;;;8.51;100.00;100482.66;4974796;28;20394;-80
2022/04/05 03:09:28;;;;;;;;;;;;;;;8.53;100.00;100486.00;4971071;28;19922;-80
2022/04/05 03:11:55;;;;;;;;;;;;;;;8.52;100.00;100487.00;4972256;28;19929;-81
2022/04/05 03:14:20;;;;;;;;;;;;;;;8.51;100.00;100482.66;4975013;28;20021;-80
2022/04/05 03:16:46;;;;;;;;;;;;;;;8.50;100.00;100480.13;4976140;28;19957;-82
2022/04/05 03:19:11;;;;;;;;;;;;;;;8.48;100.00;100483.00;4978120;28;19985;-80
2022/04/05 03:21:37;;;;;;;;;;;;;;;8.47;100.00;100486.69;4973834;28;19953;-80
2022/04/05 03:24:02;;;;;;;;;;;;;;;8.47;100.00;100477.81;4971349;28;19922;-79
2022/04/05 03:26:27;;;;;;;;;;;;;;;8.48;100.00;100485.69;4969813;28;19971;-78
2022/04/05 03:28:52;;;;;;;;;;;;;;;8.43;100.00;100480.03;4971540;28;19919;-79
2022/04/05 03:31:18;;;;;;;;;;;;;;;8.47;100.00;100481.31;4971513;28;19922;-79
2022/04/05 03:33:43;;;;;;;;;;;;;;;8.49;100.00;100486.53;4971198;28;19924;-79
2022/04/05 03:36:08;;;;;;;;;;;;;;;8.47;100.00;100477.81;4971940;28;19944;-79
2022/04/05 03:38:33;;;;;;;;;;;;;;;8.48;100.00;100474.97;4974553;28;19918;-79
2022/04/05 03:40:58;;;;;;;;;;;;;;;8.46;100.00;100476.97;4977265;28;20250;-79
2022/04/05 03:43:24;;;;;;;;;;;;;;;8.47;100.00;100481.31;4978759;28;19985;-79
2022/04/05 03:45:49;;;;;;;;;;;;;;;8.50;100.00;100474.75;4981067;28;19940;-78
2022/04/05 03:48:15;;;;;;;;;;;;;;;8.49;100.00;100473.94;4974532;28;19979;-79
2022/04/05 03:50:40;;;;;;;;;;;;;;;8.49;100.00;100479.31;4973608;28;19922;-80
2022/04/05 03:53:06;;;;;;;;;;;;;;;8.52;100.00;100476.25;4971658;28;19918;-80
2022/04/05 03:55:31;;;;;;;;;;;;;;;8.51;100.00;100481.81;4972156;28;19948;-81
2022/04/05 03:57:56;;;;;;;;;;;;;;;8.51;100.00;100474.59;4975699;28;19919;-80
2022/04/05 04:00:21;;;;;;;;;;;;;;;8.47;100.00;100475.13;4975854;28;19993;-79
2022/04/05 04:02:46;;;;;;;;;;;;;;;8.49;100.00;100479.31;4974030;28;19922;-79
2022/04/05 04:05:16;;;;;;;;;;;;;;;8.48;100.00;100480.31;4971844;28;20303;-80
2022/04/05 04:07:42;;;;;;;;;;;;;;;8.47;100.00;100470.59;4974774;28;19929;-79
2022/04/05 04:10:08;;;;;;;;;;;;;;;8.50;100.00;100475.59;4971442;28;20282;-80
2022/04/05 04:12:33;;;;;;;;;;;;;;;8.49;100.00;100479.31;4972629;28;19918;-79
2022/04/05 04:14:58;;;;;;;;;;;;;;;8.51;100.00;100471.91;4971037;28;19964;-79
2022/04/05 04:17:25;;;;;;;;;;;;;;;8.52;100.00;100467.38;4970434;28;19937;-79
2022/04/05 04:19:51;;;;;;;;;;;;;;;8.52;100.00;100467.38;4973188;28;19927;-78
2022/04/05 04:22:16;;;;;;;;;;;;;;;8.51;100.00;100471.09;4976735;28;20301;-80
2022/04/05 04:24:41;;;;;;;;;;;;;;;8.54;100.00;100463.50;4976768;28;20400;-78
2022/04/05 04:27:06;;;;;;;;;;;;;;;8.55;100.00;100467.84;4977289;28;19929;-79
2022/04/05 04:29:32;;;;;;;;;;;;;;;8.53;100.00;100467.22;4975259;28;19925;-78
2022/04/05 04:31:57;;;;;;;;;;;;;;;8.54;100.00;100468.88;4976769;28;19926;-79
2022/04/05 04:34:22;;;;;;;;;;;;;;;8.55;100.00;100470.53;4977885;28;20391;-81
2022/04/05 04:36:48;;;;;;;;;;;;;;;8.56;100.00;100484.81;4976699;28;19922;-83
2022/04/05 04:39:16;;;;;;;;;;;;;;;8.54;100.00;100474.25;4978736;28;20016;-81
2022/04/05 04:41:42;;;;;;;;;;;;;;;8.57;100.00;100481.94;4978686;28;19918;-80
2022/04/05 04:44:07;;;;;;;;;;;;;;;8.61;100.00;100477.06;4980538;28;20021;-80
2022/04/05 04:46:32;;;;;;;;;;;;;;;8.62;100.00;100473.34;4981664;28;19968;-79
2022/04/05 04:48:57;;;;;;;;;;;;;;;8.67;100.00;100480.88;4983905;28;19922;-84
2022/04/05 04:51:22;;;;;;;;;;;;;;;8.69;100.00;100484.19;4983477;28;19918;-81
2022/04/05 04:53:48;;;;;;;;;;;;;;;8.69;100.00;100481.50;4992585;28;19988;-81
2022/04/05 04:56:13;;;;;;;;;;;;;;;8.67;100.00;100470.16;4996052;28;19910;-82
2022/04/05 04:58:39;;;;;;;;;;;;;;;8.68;100.00;100478.00;4994317;28;19918;-81
2022/04/05 05:01:04;;;;;;;;;;;;;;;8.72;100.00;100478.50;4993767;28;19929;-82
2022/04/05 05:03:29;;;;;;;;;;;;;;;8.75;100.00;100478.13;4992101;28;19932;-81
2022/04/05 05:05:54;;;;;;;;;;;;;;;8.75;100.00;100478.97;5014247;28;19972;-81
2022/04/05 05:08:20;;;;;;;;;;;;;;;8.75;100.00;100483.50;4983237;28;19918;-78
2022/04/05 05:10:45;;;;;;;;;;;;;;;8.76;100.00;100480.63;5023126;28;19922;-80
2022/04/05 05:13:11;;;;;;;;;;;;;;;8.79;100.00;100468.69;4991926;28;19906;-78
2022/04/05 05:15:36;;;;;;;;;;;;;;;8.82;100.00;100494.34;4992840;28;19922;-79
2022/04/05 05:18:01;;;;;;;;;;;;;;;8.82;100.00;100497.88;4993206;28;19918;-81
2022/04/05 05:20:26;;;;;;;;;;;;;;;8.83;100.00;100496.84;4993175;28;19938;-81
2022/04/05 05:22:52;;;;;;;;;;;;;;;8.82;100.00;100487.16;4966143;28;19919;-80
2022/04/05 05:25:17;;;;;;;;;;;;;;;8.83;100.00;100496.03;4981663;28;19918;-82
2022/04/05 05:27:42;;;;;;;;;;;;;;;8.87;100.00;100492.78;4977888;28;19922;-81
2022/04/05 05:30:08;;;;;;;;;;;;;;;8.87;100.00;100482.03;4978041;28;19918;-81
2022/04/05 05:32:49;;;;;;;;;;;;;;;8.86;100.00;100480.38;4978621;28;19926;-80
2022/04/05 05:35:15;;;;;;;;;;;;;;;8.89;100.00;100485.38;4958157;28;20409;-82
2022/04/05 05:37:40;;;;;;;;;;;;;;;8.89;100.00;100485.38;4962279;28;19918;-81
2022/04/05 05:40:06;;;;;;;;;;;;;;;8.87;100.00;100490.09;4979877;28;19928;-80
2022/04/05 05:42:31;;;;;;;;;;;;;;;8.86;100.00;100493.81;4987552;28;19918;-81
2022/04/05 05:44:57;;;;;;;;;;;;;;;8.89;100.00;100496.13;4985593;28;19922;-84
2022/04/05 05:47:22;;;;;;;;;;;;;;;8.92;100.00;100493.06;4985132;28;19944;-80
2022/04/05 05:49:47;;;;;;;;;;;;;;;8.94;100.00;100484.84;4982843;28;19922;-81
2022/04/05 05:52:12;;;;;;;;;;;;;;;8.96;100.00;100499.78;4983791;28;20388;-80
2022/04/05 05:54:37;;;;;;;;;;;;;;;8.99;100.00;100499.41;4978322;28;19933;-83
2022/04/05 05:57:03;;;;;;;;;;;;;;;9.00;100.00;100500.22;4982145;28;19910;-84
2022/04/05 05:59:28;;;;;;;;;;;;;;;9.07;100.00;100498.50;4994665;28;19928;-83
2022/04/05 06:01:55;;;;;;;;;;;;;;;9.10;100.00;100502.69;4984233;28;20349;-82
2022/04/05 06:04:20;;;;;;;;;;;;;;;9.10;100.00;100508.06;4987022;28;19929;-85
2022/04/05 06:06:45;;;;;;;;;;;;;;;9.10;100.00;100502.69;4983511;28;19922;-81
2022/04/05 06:09:10;;;;;;;;;;;;;;;9.07;100.00;100500.38;4985832;28;19919;-81
2022/04/05 06:11:35;;;;;;;;;;;;;;;9.08;100.00;100500.16;4987576;28;19950;-82
2022/04/05 06:14:01;;;;;;;;;;;;;;;9.06;100.00;100501.34;4987326;28;19918;-83
2022/04/05 06:16:26;;;;;;;;;;;;;;;9.09;100.00;100506.38;4984984;28;19919;-83
2022/04/05 06:18:51;;;;;;;;;;;;;;;9.10;100.00;100508.06;4983945;28;19955;-82
2022/04/05 06:21:19;;;;;;;;;;;;;;;9.14;100.00;100512.06;4985500;28;19999;-83
2022/04/05 06:23:44;;;;;;;;;;;;;;;9.10;100.00;100503.50;4983924;28;19918;-83
2022/04/05 06:26:11;;;;;;;;;;;;;;;9.11;100.00;100512.38;4982914;28;19924;-81
2022/04/05 06:28:36;;;;;;;;;;;;;;;9.12;100.00;100514.06;4983382;28;19918;-85
2022/04/05 06:31:01;;;;;;;;;;;;;;;9.16;100.00;100507.31;4979263;28;19922;-84
2022/04/05 06:33:27;;;;;;;;;;;;;;;9.19;100.00;100512.34;4982273;28;20003;-84
2022/04/05 06:35:58;;;;;;;;;;;;;;;9.19;100.00;100506.97;4977816;28;19922;-80
2022/04/05 06:38:24;;;;;;;;;;;;;;;9.21;100.00;100504.94;4978722;28;19949;-81
2022/04/05 06:40:50;;;;;;;;;;;;;;;9.24;99.95;100515.28;4979307;28;19917;-82
2022/04/05 06:43:16;;;;;;;;;;;;;;;9.31;99.72;100512.72;4979690;28;19941;-84
2022/04/05 06:45:41;;;;;;;;;;;;;;;9.35;98.85;100522.94;4977548;28;20019;-82
2022/04/05 06:48:06;;;;;;;;;;;;;;;9.36;98.74;100527.28;4975976;28;19929;-83
2022/04/05 06:50:34;;;;;;;;;;;;;;;9.40;98.84;100525.91;4976578;28;19953;-85
2022/04/05 06:53:00;;;;;;;;;;;;;;;9.44;98.42;100511.09;4978008;28;19925;-80
2022/04/05 06:55:25;;;;;;;;;;;;;;;9.45;97.76;100520.84;4974910;28;19978;-83
2022/04/05 06:57:50;;;;;;;;;;;;;;;9.50;97.67;100525.63;4975758;28;19918;-81
2022/04/05 07:00:18;;;;;;;;;;;;;;;9.52;97.55;100541.59;4974159;28;19925;-81
2022/04/05 07:02:43;;;;;;;;;;;;;;;9.58;97.25;100540.84;4978077;28;19918;-83
2022/04/05 07:05:11;;;;;;;;;;;;;;;9.63;97.28;100525.00;4976677;28;19933;-81
2022/04/05 07:07:37;;;;;;;;;;;;;;;9.64;97.29;100532.91;4978399;28;20032;-82
2022/04/05 07:10:03;;;;;;;;;;;;;;;9.67;97.07;100531.69;4974858;28;19950;-82
2022/04/05 07:12:28;;;;;;;;;;;;;;;9.68;96.84;100533.34;4974897;28;19966;-84
2022/04/05 07:14:54;;;;;;;;;;;;;;;9.68;96.46;100539.56;4974493;28;19944;-86
2022/04/05 07:17:19;;;;;;;;;;;;;;;9.72;96.19;100533.84;4978489;28;19919;-81
2022/04/05 07:19:44;;;;;;;;;;;;;;;9.77;95.58;100537.66;4973327;28;19919;-81
2022/04/05 07:22:09;;;;;;;;;;;;;;;9.85;95.64;100540.25;4973425;28;19918;-82
2022/04/05 07:24:34;;;;;;;;;;;;;;;9.82;95.17;100546.00;4972575;28;20246;-83
2022/04/05 07:27:00;;;;;;;;;;;;;;;9.80;95.24;100548.03;4975053;28;20335;-83
2022/04/05 07:29:25;;;;;;;;;;;;;;;9.76;95.24;100545.88;4973912;28;19925;-83
2022/04/05 07:31:50;;;;;;;;;;;;;;;9.70;95.44;100549.31;4975543;28;19919;-83
2022/04/05 07:34:15;;;;;;;;;;;;;;;9.72;95.63;100545.41;4975178;28;19987;-81
2022/04/05 07:36:41;;;;;;;;;;;;;;;9.70;95.78;100542.06;4976790;28;20325;-83
2022/04/05 07:39:06;;;;;;;;;;;;;;;9.67;96.04;100547.81;4978177;28;20417;-82
2022/04/05 07:41:31;;;;;;;;;;;;;;;9.65;96.81;100555.22;4978234;28;19940;-83
2022/04/05 07:43:56;;;;;;;;;;;;;;;9.58;97.16;100551.59;4978945;28;19924;-84
2022/04/05 07:46:22;;;;;;;;;;;;;;;9.53;97.52;100545.94;4975602;28;19918;-82
2022/04/05 07:48:47;;;;;;;;;;;;;;;9.55;97.96;100546.59;4978718;28;19918;-84
2022/04/05 07:51:16;;;;;;;;;;;;;;;9.53;98.23;100543.25;4976204;28;19925;-82
2022/04/05 07:53:41;;;;;;;;;;;;;;;9.55;98.02;100544.72;4973237;28;19932;-80
2022/04/05 07:56:07;;;;;;;;;;;;;;;9.49;97.88;100550.00;4977371;28;19919;-83
2022/04/05 07:58:33;;;;;;;;;;;;;;;9.51;97.73;100548.00;4978175;28;19919;-80
2022/04/05 08:00:58;;;;;;;;;;;;;;;9.55;98.00;100543.91;4982443;28;19976;-81
2022/04/05 08:03:24;;;;;;;;;;;;;;;9.56;97.88;100549.09;4982770;28;19918;-82
2022/04/05 08:05:49;;;;;;;;;;;;;;;9.58;97.84;100548.91;4982133;28;19930;-80
2022/04/05 08:08:14;;;;;;;;;;;;;;;9.56;97.65;100546.41;4979106;28;19926;-81
2022/04/05 08:10:39;;;;;;;;;;;;;;;9.58;97.89;100549.72;4974105;28;19918;-82
2022/04/05 08:13:05;;;;;;;;;;;;;;;9.57;97.62;100548.06;4975974;28;19918;-82
2022/04/05 08:15:30;;;;;;;;;;;;;;;9.59;97.71;100548.75;4978758;28;20328;-82
2022/04/05 08:17:56;;;;;;;;;;;;;;;9.60;97.58;100561.13;4977993;28;19924;-78
2022/04/05 08:20:22;;;;;;;;;;;;;;;9.62;97.52;100563.66;4976692;28;20266;-80
2022/04/05 08:22:47;;;;;;;;;;;;;;;9.63;97.67;100550.03;4977899;28;19922;-80
2022/04/05 08:25:14;;;;;;;;;;;;;;;9.70;97.75;100552.81;4977835;28;19925;-84
2022/04/05 08:27:39;;;;;;;;;;;;;;;9.80;97.76;100553.41;4978529;28;20016;-81
2022/04/05 08:30:05;;;;;;;;;;;;;;;9.89;97.33;100554.97;4982361;28;20079;-83
2022/04/05 08:32:30;;;;;;;;;;;;;;;10.01;96.61;100565.28;4980037;28;19918;-81
2022/04/05 08:34:55;;;;;;;;;;;;;;;10.11;96.08;100569.38;4975585;28;19926;-79
2022/04/05 08:37:22;;;;;;;;;;;;;;;10.17;95.77;100573.16;4976089;28;20263;-81
2022/04/05 08:39:48;;;;;;;;;;;;;;;10.15;95.39;100572.50;4973940;28;20385;-81
2022/04/05 08:42:14;;;;;;;;;;;;;;;10.21;95.24;100577.13;4974413;28;19925;-82
2022/04/05 08:44:40;;;;;;;;;;;;;;;10.16;95.23;100568.78;4974085;28;19922;-81
2022/04/05 08:47:05;;;;;;;;;;;;;;;10.14;95.16;100576.22;4974885;28;19969;-81
2022/04/05 08:49:31;;;;;;;;;;;;;;;10.17;94.80;100575.84;4974651;28;19922;-81
2022/04/05 08:51:56;;;;;;;;;;;;;;;10.09;94.70;100578.63;4974613;28;19972;-79
2022/04/05 08:54:22;;;;;;;;;;;;;;;10.07;94.35;100569.91;4973448;28;20008;-80
2022/04/05 08:56:47;;;;;;;;;;;;;;;10.07;94.71;100575.28;4975150;28;20262;-80
2022/04/05 08:59:15;;;;;;;;;;;;;;;10.11;94.80;100560.47;4976002;28;20018;-80
2022/04/05 09:01:41;;;;;;;;;;;;;;;10.13;94.81;100582.59;4975035;28;19919;-81
2022/04/05 09:04:06;;;;;;;;;;;;;;;10.14;95.14;100576.22;4975255;28;20316;-82
2022/04/05 09:06:32;;;;;;;;;;;;;;;10.15;95.11;100577.88;4973607;28;20388;-79
2022/04/05 09:09:07;;;;;;;;;;;;;;;10.20;94.95;100580.84;4975012;28;20005;-82
2022/04/05 09:11:32;;;;;;;;;;;;;;;10.21;94.96;100577.13;4974030;28;19956;-80
2022/04/05 09:13:58;;;;;;;;;;;;;;;10.23;94.79;100577.78;4972563;28;20357;-80
2022/04/05 09:16:33;;;;;;;;;;;;;;;10.20;94.51;100591.59;4975638;28;20364;-81
2022/04/05 09:19:00;;;;;;;;;;;;;;;10.28;94.66;100582.63;4974146;28;20013;-80
2022/04/05 09:21:26;;;;;;;;;;;;;;;10.37;93.77;100578.00;4974322;28;20083;-78
2022/04/05 09:23:52;;;;;;;;;;;;;;;10.52;93.61;100579.63;4972661;28;20395;-80
2022/04/05 09:26:18;;;;;;;;;;;;;;;10.76;93.33;100591.94;4974016;28;20020;-80
2022/04/05 09:28:50;;;;;;;;;;;;;;;10.71;92.33;100578.19;4972022;28;19918;-79
2022/04/05 09:31:24;;;;;;;;;;;;;;;10.80;92.24;100586.19;4972732;28;19975;-78
2022/04/05 09:34:06;;;;;;;;;;;;;;;11.02;91.11;100593.25;4973275;28;20408;-79
2022/04/05 09:36:35;;;;;;;;;;;;;;;11.14;90.97;100593.59;4973344;28;19918;-79
2022/04/05 09:39:20;;;;;;;;;;;;;;;11.21;89.83;100600.69;4973896;28;19918;-80
2022/04/05 09:41:48;;;;;;;;;;;;;;;11.09;89.57;100596.88;4972428;28;19931;-81
2022/04/05 09:44:23;;;;;;;;;;;;;;;11.09;89.78;100591.47;4973598;28;19963;-80
2022/04/05 09:46:52;;;;;;;;;;;;;;;11.01;89.80;100588.91;4972575;28;20015;-80
2022/04/05 09:49:17;;;;;;;;;;;;;;;11.04;90.21;100599.28;4972767;28;19922;-81
2022/04/05 09:51:43;;;;;;;;;;;;;;;10.88;90.08;100594.97;4972403;28;19922;-80
2022/04/05 09:54:19;;;;;;;;;;;;;;;10.90;90.63;100597.47;4972736;28;19922;-80
2022/04/05 09:56:44;;;;;;;;;;;;;;;10.80;90.89;100602.34;4972760;28;19964;-80
2022/04/05 09:59:18;;;;;;;;;;;;;;;10.76;91.56;100591.94;4973330;28;19968;-81
2022/04/05 10:01:45;;;;;;;;;;;;;;;10.74;92.19;100593.16;4972566;28;20025;-80
2022/04/05 10:04:11;;;;;;;;;;;;;;;10.92;93.08;100590.03;4976795;28;19929;-80
2022/04/05 10:06:43;;;;;;;;;;;;;;;10.93;92.96;100591.72;4974415;28;19922;-80
2022/04/05 10:09:08;;;;;;;;;;;;;;;11.03;92.95;100580.63;4974471;28;19918;-79
2022/04/05 10:11:34;;;;;;;;;;;;;;;11.15;92.64;100604.16;4973598;28;20037;-80
2022/04/05 10:13:59;;;;;;;;;;;;;;;11.43;92.99;100576.47;4975948;28;19922;-80
2022/04/05 10:16:26;;;;;;;;;;;;;;;11.81;91.78;100590.44;4975724;28;19994;-81
2022/04/05 10:19:05;;;;;;;;;;;;;;;12.36;91.09;100584.38;4974946;28;19918;-79
2022/04/05 10:21:31;;;;;;;;;;;;;;;12.73;86.77;100585.78;4973831;28;19919;-80
2022/04/05 10:23:56;;;;;;;;;;;;;;;12.87;84.00;100590.19;4972973;28;20330;-80
2022/04/05 10:26:32;;;;;;;;;;;;;;;12.72;83.59;100600.34;4970938;28;19925;-79
2022/04/05 10:28:58;;;;;;;;;;;;;;;12.71;83.86;100598.66;4971768;28;20289;-80
2022/04/05 10:31:26;;;;;;;;;;;;;;;12.50;84.03;100603.13;4971691;28;19965;-81
2022/04/05 10:33:54;;;;;;;;;;;;;;;12.38;84.47;100598.53;4969877;28;19918;-82
2022/04/05 10:36:23;;;;;;;;;;;;;;;12.25;84.51;100597.41;4971988;28;20404;-81
2022/04/05 10:39:07;;;;;;;;;;;;;;;12.17;85.30;100610.22;4970601;28;19937;-81
2022/04/05 10:41:32;;;;;;;;;;;;;;;11.92;86.05;100602.59;4971748;28;20303;-80
2022/04/05 10:44:30;;;;;;;;;;;;;;;11.99;85.91;100595.38;4970414;28;20016;-80
2022/04/05 10:46:58;;;;;;;;;;;;;;;12.02;85.62;100592.28;4958946;28;20030;-81
2022/04/05 10:49:36;;;;;;;;;;;;;;;12.02;85.66;100592.28;4971785;28;20014;-79
2022/04/05 10:52:20;;;;;;;;;;;;;;;11.98;84.89;100590.16;4972149;28;19918;-81
2022/04/05 10:54:49;;;;;;;;;;;;;;;12.21;85.63;100603.38;4971668;28;19922;-80
2022/04/05 10:57:26;;;;;;;;;;;;;;;12.15;85.46;100596.09;4971393;28;19979;-80
2022/04/05 10:59:55;;;;;;;;;;;;;;;12.22;84.53;100602.38;4973084;28;20013;-80
2022/04/05 11:02:30;;;;;;;;;;;;;;;12.21;84.74;100598.00;4972226;28;19918;-79
2022/04/05 11:04:59;;;;;;;;;;;;;;;12.14;85.25;100589.88;4971924;28;19918;-80
2022/04/05 11:07:24;;;;;;;;;;;;;;;12.23;85.17;100595.94;4971337;28;19972;-78
2022/04/05 11:09:51;;;;;;;;;;;;;;;12.27;85.36;100599.91;4971922;28;19923;-79
2022/04/05 11:12:19;;;;;;;;;;;;;;;12.24;85.25;100586.81;4969934;28;20386;-81
2022/04/05 11:14:50;;;;;;;;;;;;;;;12.38;84.29;100582.34;4971037;28;19918;-80
2022/04/05 11:17:15;;;;;;;;;;;;;;;12.60;84.46;100578.47;4971216;28;19918;-81
2022/04/05 11:19:42;;;;;;;;;;;;;;;12.79;85.18;100582.28;4971160;28;19918;-79
2022/04/05 11:22:19;;;;;;;;;;;;;;;12.69;83.57;100577.28;4971371;28;20397;-79
2022/04/05 11:24:50;;;;;;;;;;;;;;;12.73;82.96;100602.81;4970972;28;19918;-80
2022/04/05 11:27:29;;;;;;;;;;;;;;;12.50;83.47;100589.63;4972402;28;19922;-80
2022/04/05 11:30:13;;;;;;;;;;;;;;;12.42;84.17;100603.31;4976575;28;19941;-80
2022/04/05 11:32:38;;;;;;;;;;;;;;;12.19;85.13;100597.34;4975272;28;19918;-81
2022/04/05 11:35:04;;;;;;;;;;;;;;;11.90;85.67;100599.28;4975411;28;20293;-80
2022/04/05 11:37:33;;;;;;;;;;;;;;;11.90;86.50;100599.28;4958036;28;19996;-77
2022/04/05 11:40:00;;;;;;;;;;;;;;;11.83;87.30;100603.75;4975875;28;19928;-79
2022/04/05 11:42:25;;;;;;;;;;;;;;;11.85;87.41;100594.44;4979363;28;20019;-81
2022/04/05 11:44:50;;;;;;;;;;;;;;;11.91;88.25;100606.31;4975521;28;19930;-80
2022/04/05 11:47:15;;;;;;;;;;;;;;;11.93;87.57;100604.25;4975548;28;19918;-78
2022/04/05 11:49:41;;;;;;;;;;;;;;;11.77;87.22;100615.28;4975908;28;20404;-80
2022/04/05 11:52:08;;;;;;;;;;;;;;;11.68;87.80;100613.78;4975693;28;19944;-79
2022/04/05 11:56:00;;;;;;;;;;;;;;;11.53;87.73;100609.31;4974369;28;19923;-78
2022/04/05 11:57:18;;;;;;;;;;;;;;;11.36;87.89;100618.69;4974722;28;19922;-79
2022/04/05 11:59:43;;;;;;;;;;;;;;;11.40;88.55;100618.09;4975785;28;19919;-79
2022/04/05 12:02:09;;;;;;;;;;;;;;;11.47;88.36;100614.63;4974075;28;19922;-80
2022/04/05 12:04:34;;;;;;;;;;;;;;;11.49;88.09;100618.81;4972776;28;19925;-77
2022/04/05 12:07:01;;;;;;;;;;;;;;;11.37;88.76;100615.81;4974321;28;19928;-79
2022/04/05 12:09:26;;;;;;;;;;;;;;;11.23;89.09;100613.16;4975455;28;19918;-77
2022/04/05 12:11:52;;;;;;;;;;;;;;;11.08;89.47;100608.66;4957344;28;19918;-79
2022/04/05 12:14:18;;;;;;;;;;;;;;;10.91;89.92;100604.53;4976212;28;19972;-80
2022/04/05 12:16:51;;;;;;;;;;;;;;;10.98;90.10;100605.44;4974634;28;19918;-79
2022/04/05 12:19:20;;;;;;;;;;;;;;;10.99;89.84;100601.72;4974382;28;20008;-80
2022/04/05 12:21:45;;;;;;;;;;;;;;;11.13;89.79;100600.81;4974340;28;19999;-79
2022/04/05 12:24:11;;;;;;;;;;;;;;;11.07;89.38;100601.59;4973159;28;19941;-79
2022/04/05 12:26:36;;;;;;;;;;;;;;;11.11;89.06;100602.91;4973970;28;19944;-78
2022/04/05 12:29:01;;;;;;;;;;;;;;;11.11;89.17;100592.13;4975301;28;19918;-79
2022/04/05 12:31:28;;;;;;;;;;;;;;;11.08;88.93;100600.56;4975924;28;19964;-80
2022/04/05 12:33:54;;;;;;;;;;;;;;;11.17;88.89;100604.00;4971909;28;19925;-80
2022/04/05 12:36:20;;;;;;;;;;;;;;;11.10;88.36;100593.13;4974965;28;19929;-75